Plattsburgh International Airport Plattsburgh US
ICAO: KPBG
IATA: PBG
Category: Medium
Scheduled Services: Yes

Elevation: 234 ft
TransAlt. 18000 ft.

Airport Communications:
BURLINGTON APP/DEP:121.1
CTAF/UNICOM:122.7

KPBG Zoom In..

If you have problems with the map follow the link
https://www.worldairports.se/pages/airport.php?
ICAO=KPBG

Runways:

(A) RW 17 length 11758 ft width 200 ft
ILS 109.70 / hdg 172

(B) RW 35 length 11758 ft width 200 ft
ILS 109.70 / hdg 352

Location; KPBG
Day. 06 / Time. 02.53 Zulu
* Altimeter: 29.96
* Temperature: -03° c. -26.6°f.
* Wind from: VRB° Speed 05 kn.
Dewpoint: -10° c.
Visibility: 10 Statute Miles.
Clouds: Overcast 4800 ft.

KPBG 060253Z AUTO VRB05KT 10SM OVC048 M03/M10 A2996 RMK AO2 SLP147 T10281100 51027


Wind From VRB°
Speed 05 kn.

 
 
jpsmedia worldairports.se 2019   terms of use